createdAt,value
2019-02-22T00:02:40.295Z,24.00
2019-02-22T00:06:43.663Z,24.77
2019-02-22T00:10:47.164Z,24.98
2019-02-22T00:14:50.543Z,23.22
2019-02-22T00:18:53.939Z,23.98
2019-02-22T00:22:57.319Z,24.85
2019-02-22T00:27:00.821Z,24.63
2019-02-22T00:31:04.195Z,26.23
2019-02-22T00:35:07.660Z,27.80
2019-02-22T00:39:11.102Z,23.62
2019-02-22T00:43:14.470Z,25.70
2019-02-22T00:47:17.840Z,26.37
2019-02-22T00:51:21.223Z,24.90
2019-02-22T00:55:24.616Z,28.10
2019-02-22T00:59:28.027Z,30.88
2019-02-22T01:03:31.399Z,31.17
2019-02-22T01:07:34.777Z,34.63
2019-02-22T01:11:38.172Z,36.75
2019-02-22T01:15:41.574Z,37.15
2019-02-22T01:19:44.970Z,40.90
2019-02-22T01:23:48.274Z,45.10
2019-02-22T01:27:51.671Z,42.93
2019-02-22T01:31:55.066Z,44.08
2019-02-22T01:35:58.471Z,45.70
2019-02-22T01:40:01.847Z,46.25
2019-02-22T01:44:05.255Z,46.73
2019-02-22T01:48:08.624Z,44.90
2019-02-22T01:52:12.008Z,41.77
2019-02-22T01:56:15.404Z,42.13
2019-02-22T02:00:19.051Z,41.18
2019-02-22T02:04:22.434Z,38.70
2019-02-22T02:08:25.825Z,40.87
2019-02-22T02:12:29.219Z,39.78
2019-02-22T02:16:32.622Z,36.37
2019-02-22T02:20:36.001Z,39.48
2019-02-22T02:24:39.383Z,37.53
2019-02-22T02:28:42.762Z,36.80
2019-02-22T02:32:46.174Z,38.05
2019-02-22T02:36:49.567Z,39.18
2019-02-22T02:40:52.944Z,37.03
2019-02-22T02:44:56.326Z,35.30
2019-02-22T02:48:59.707Z,34.13
2019-02-22T02:53:03.012Z,32.17
2019-02-22T02:57:06.429Z,33.80
2019-02-22T03:01:09.796Z,34.50
2019-02-22T03:05:13.174Z,35.13
2019-02-22T03:09:16.649Z,34.38
2019-02-22T03:13:20.027Z,33.98
2019-02-22T03:17:23.407Z,37.45
2019-02-22T03:21:26.791Z,36.08
2019-02-22T03:25:30.704Z,34.80
2019-02-22T03:29:34.087Z,36.20
2019-02-22T03:33:37.478Z,34.33
2019-02-22T03:37:40.872Z,32.83
2019-02-22T03:41:44.247Z,34.73
2019-02-22T03:45:47.634Z,32.13
2019-02-22T03:49:51.018Z,33.50
2019-02-22T03:53:57.395Z,32.78
2019-02-22T03:57:59.914Z,35.03
2019-02-22T04:02:03.280Z,32.73
2019-02-22T04:06:06.660Z,31.82
2019-02-22T04:10:10.066Z,33.02
2019-02-22T04:14:13.499Z,31.57
2019-02-22T04:18:16.899Z,31.97
2019-02-22T04:22:20.295Z,31.17
2019-02-22T04:26:23.678Z,32.13
2019-02-22T04:30:27.051Z,32.67
2019-02-22T04:34:30.497Z,30.60
2019-02-22T04:38:33.826Z,30.80
2019-02-22T04:42:37.195Z,29.77
2019-02-22T04:46:40.597Z,27.90
2019-02-22T04:50:43.971Z,29.18
2019-02-22T04:54:47.354Z,28.00
2019-02-22T04:58:50.744Z,27.95
2019-02-22T05:02:54.119Z,25.70
2019-02-22T05:06:57.496Z,28.30
2019-02-22T05:11:00.887Z,28.42
2019-02-22T05:15:12.700Z,21.87
2019-02-22T05:19:10.659Z,19.10
2019-02-22T05:23:14.022Z,17.37
2019-02-22T05:27:17.716Z,16.45
2019-02-22T05:31:21.097Z,13.83
2019-02-22T05:35:24.491Z,11.85
2019-02-22T05:39:27.876Z,12.33
2019-02-22T05:43:31.338Z,10.98
2019-02-22T05:47:34.757Z,10.25
2019-02-22T05:51:38.175Z,9.25
2019-02-22T05:55:44.069Z,9.90
2019-02-22T05:59:46.564Z,9.30
2019-02-22T06:03:49.935Z,9.48
2019-02-22T06:07:53.311Z,11.25
2019-02-22T06:11:56.690Z,11.55
2019-02-22T06:16:00.080Z,10.68
2019-02-22T06:20:08.767Z,13.03
2019-02-22T06:24:12.209Z,13.10
2019-02-22T06:28:15.599Z,13.95
2019-02-22T06:32:18.972Z,12.95
2019-02-22T06:36:22.352Z,12.10
2019-02-22T06:40:26.306Z,13.12
2019-02-22T06:44:29.647Z,12.60
2019-02-22T06:48:33.105Z,14.40
2019-02-22T06:52:36.496Z,12.70
2019-02-22T06:56:39.883Z,12.67
2019-02-22T07:00:43.259Z,11.90
2019-02-22T07:04:46.649Z,13.55
2019-02-22T07:08:50.023Z,13.08
2019-02-22T07:12:56.959Z,13.40
2019-02-22T07:17:00.108Z,10.32
2019-02-22T07:21:03.491Z,7.15
2019-02-22T07:25:09.793Z,7.03
2019-02-22T07:29:13.175Z,6.90
2019-02-22T07:33:16.561Z,7.03
2019-02-22T07:37:19.926Z,7.45
2019-02-22T07:41:23.316Z,8.40
2019-02-22T07:45:26.677Z,9.13
2019-02-22T07:49:30.167Z,8.93
2019-02-22T07:53:53.300Z,8.48
2019-02-22T07:57:56.687Z,9.20
2019-02-22T08:02:00.062Z,8.98
2019-02-22T08:06:03.482Z,9.25
2019-02-22T08:10:06.838Z,9.03
2019-02-22T08:14:10.208Z,9.45
2019-02-22T08:18:13.585Z,9.30
2019-02-22T08:22:16.971Z,9.10
2019-02-22T08:26:20.370Z,6.67
2019-02-22T08:30:23.755Z,5.33
2019-02-22T08:34:27.142Z,4.22
2019-02-22T08:38:30.515Z,3.80
2019-02-22T08:42:33.890Z,2.27
2019-02-22T08:46:37.287Z,3.08
2019-02-22T08:50:40.654Z,3.00
2019-02-22T08:54:47.030Z,1.95
2019-02-22T08:58:49.063Z,2.23
2019-02-22T09:02:52.443Z,2.40
2019-02-22T09:06:55.860Z,2.70
2019-02-22T09:11:00.760Z,1.77
2019-02-22T09:15:05.043Z,2.30
2019-02-22T09:19:08.332Z,2.00
2019-02-22T09:23:11.707Z,1.90
2019-02-22T09:27:15.253Z,2.00
2019-02-22T09:31:18.703Z,2.33
2019-02-22T09:35:22.074Z,2.00
2019-02-22T09:39:25.604Z,2.40
2019-02-22T09:43:28.956Z,1.90
2019-02-22T09:47:32.365Z,1.70
2019-02-22T09:51:35.810Z,1.60
2019-02-22T09:55:39.106Z,1.47
2019-02-22T09:59:42.491Z,2.22
2019-02-22T10:03:45.867Z,2.10
2019-02-22T10:07:49.322Z,1.60
2019-02-22T10:11:52.694Z,1.70
2019-02-22T10:15:56.304Z,2.10
2019-02-22T10:20:01.530Z,1.25
2019-02-22T10:24:04.706Z,1.67
2019-02-22T10:28:17.273Z,1.70
2019-02-22T10:32:15.837Z,1.57
2019-02-22T10:36:18.480Z,2.05
2019-02-22T10:40:21.856Z,1.10
2019-02-22T10:44:25.679Z,1.20
2019-02-22T10:48:29.090Z,1.80
2019-02-22T10:52:32.472Z,1.73
2019-02-22T10:56:35.859Z,1.80
2019-02-22T11:00:39.227Z,1.70
2019-02-22T11:04:42.547Z,2.50
2019-02-22T11:08:45.931Z,1.70
2019-02-22T11:12:49.293Z,1.75
2019-02-22T11:16:52.672Z,1.70
2019-02-22T11:20:56.930Z,2.22
2019-02-22T11:25:00.329Z,1.62
2019-02-22T11:29:03.688Z,1.57
2019-02-22T11:33:07.055Z,1.82
2019-02-22T11:37:10.552Z,1.87
2019-02-22T11:41:13.915Z,1.52
2019-02-22T11:45:17.286Z,1.70
2019-02-22T11:49:20.657Z,1.77
2019-02-22T11:53:24.136Z,1.87
2019-02-22T11:57:27.520Z,2.20
2019-02-22T12:01:30.891Z,1.87
2019-02-22T12:05:34.262Z,1.60
2019-02-22T12:09:37.631Z,1.85
2019-02-22T12:13:40.995Z,1.85
2019-02-22T12:17:44.372Z,1.92
2019-02-22T12:21:47.744Z,2.65
2019-02-22T12:25:51.113Z,1.40
2019-02-22T12:29:54.503Z,2.08
2019-02-22T12:33:57.871Z,1.90
2019-02-22T12:38:01.259Z,2.22
2019-02-22T12:42:04.664Z,2.22
2019-02-22T12:46:08.036Z,2.37
2019-02-22T12:50:12.263Z,1.90
2019-02-22T12:54:16.534Z,2.08
2019-02-22T12:58:19.902Z,1.77
2019-02-22T13:02:23.291Z,2.25
2019-02-22T13:06:26.675Z,2.35
2019-02-22T13:10:30.066Z,1.82
2019-02-22T13:14:33.438Z,2.23
2019-02-22T13:18:36.856Z,1.92
2019-02-22T13:22:40.227Z,2.07
2019-02-22T13:26:43.612Z,2.05
2019-02-22T13:30:46.981Z,2.60
2019-02-22T13:34:50.364Z,2.25
2019-02-22T13:38:53.783Z,2.70
2019-02-22T13:42:57.151Z,3.15
2019-02-22T13:47:00.482Z,3.20
2019-02-22T13:51:03.871Z,3.70
2019-02-22T13:55:08.186Z,2.87
2019-02-22T13:59:11.555Z,3.20
2019-02-22T14:03:14.926Z,4.05
2019-02-22T14:07:18.330Z,3.15
2019-02-22T14:11:21.749Z,3.50
2019-02-22T14:15:25.112Z,3.52
2019-02-22T14:19:28.504Z,3.62
2019-02-22T14:23:31.850Z,3.47
2019-02-22T14:27:35.240Z,3.70
2019-02-22T14:31:38.634Z,3.42
2019-02-22T14:35:42.010Z,3.85
2019-02-22T14:39:45.383Z,3.42
2019-02-22T14:43:48.756Z,3.40
2019-02-22T14:47:52.138Z,3.83
2019-02-22T14:51:55.534Z,3.98
2019-02-22T14:55:59.873Z,3.80
2019-02-22T15:00:05.199Z,4.50
2019-02-22T15:04:08.590Z,4.28
2019-02-22T15:08:11.958Z,4.72
2019-02-22T15:12:15.367Z,4.12
2019-02-22T15:16:29.251Z,4.47
2019-02-22T15:20:32.630Z,4.70
2019-02-22T15:24:36.015Z,4.45
2019-02-22T15:28:39.396Z,4.70
2019-02-22T15:32:42.796Z,4.43
2019-02-22T15:36:46.181Z,5.53
2019-02-22T15:40:49.574Z,4.90
2019-02-22T15:44:52.924Z,4.75
2019-02-22T15:48:56.407Z,5.53
2019-02-22T15:52:59.797Z,4.15
2019-02-22T15:57:03.162Z,4.65
2019-02-22T16:01:06.551Z,6.07
2019-02-22T16:05:11.568Z,6.47
2019-02-22T16:09:14.930Z,5.13
2019-02-22T16:13:18.318Z,5.47
2019-02-22T16:17:21.750Z,4.17
2019-02-22T16:21:25.121Z,5.12
2019-02-22T16:25:28.482Z,4.90
2019-02-22T16:29:31.858Z,4.97
2019-02-22T16:33:35.499Z,4.97
2019-02-22T16:37:38.866Z,5.00
2019-02-22T16:41:42.242Z,5.42
2019-02-22T16:45:45.624Z,5.42
2019-02-22T16:49:49.016Z,5.37
2019-02-22T16:53:52.383Z,5.20
2019-02-22T16:57:55.750Z,5.85
2019-02-22T17:01:59.130Z,5.50
2019-02-22T17:06:02.574Z,5.30
2019-02-22T17:10:08.701Z,6.58
2019-02-22T17:14:12.115Z,7.78
2019-02-22T17:18:15.523Z,5.67
2019-02-22T17:22:18.874Z,5.78
2019-02-22T17:26:22.176Z,5.20
2019-02-22T17:30:25.557Z,5.65
2019-02-22T17:34:28.932Z,8.43
2019-02-22T17:38:32.339Z,6.35
2019-02-22T17:42:35.725Z,5.58
2019-02-22T17:46:39.088Z,7.10
2019-02-22T17:50:42.459Z,6.30
2019-02-22T17:54:45.831Z,5.30
2019-02-22T17:58:49.189Z,5.37
2019-02-22T18:02:52.496Z,11.78
2019-02-22T18:06:55.866Z,5.05
2019-02-22T18:10:59.241Z,13.25
2019-02-22T18:15:02.639Z,18.75
2019-02-22T18:19:06.030Z,43.52
2019-02-22T18:23:09.419Z,30.62
2019-02-22T18:27:12.874Z,29.15
2019-02-22T18:31:16.222Z,7.92
2019-02-22T18:35:19.615Z,8.55
2019-02-22T18:39:22.989Z,7.12
2019-02-22T18:43:26.416Z,9.93
2019-02-22T18:47:29.778Z,8.33
2019-02-22T18:51:33.162Z,6.45
2019-02-22T18:55:36.534Z,7.10
2019-02-22T18:59:39.918Z,6.62
2019-02-22T19:03:43.290Z,7.20
2019-02-22T19:07:46.695Z,8.53
2019-02-22T19:11:50.067Z,9.58
2019-02-22T19:15:53.435Z,8.10
2019-02-22T19:19:56.883Z,12.83
2019-02-22T19:24:00.261Z,10.90
2019-02-22T19:28:03.635Z,11.15
2019-02-22T19:32:07.014Z,9.65
2019-02-22T19:36:10.407Z,6.42
2019-02-22T19:40:19.678Z,6.65
2019-02-22T19:44:23.157Z,7.50
2019-02-22T19:48:26.539Z,7.33
2019-02-22T19:52:29.918Z,6.75
2019-02-22T19:56:33.373Z,7.10
2019-02-22T20:00:36.768Z,5.87
2019-02-22T20:04:40.166Z,5.33
2019-02-22T20:08:43.546Z,5.70
2019-02-22T20:12:46.936Z,5.87
2019-02-22T20:16:50.467Z,6.45
2019-02-22T20:20:53.883Z,7.00
2019-02-22T20:24:57.265Z,6.35
2019-02-22T20:29:00.650Z,5.72
2019-02-22T20:33:04.053Z,6.17
2019-02-22T20:37:07.488Z,6.05
2019-02-22T20:41:10.927Z,5.70
2019-02-22T20:45:14.303Z,6.28
2019-02-22T20:49:17.695Z,6.10
2019-02-22T20:53:21.206Z,5.55
2019-02-22T20:57:24.597Z,6.28
2019-02-22T21:01:27.962Z,6.42
2019-02-22T21:05:31.347Z,6.20
2019-02-22T21:09:34.756Z,5.97
2019-02-22T21:13:38.130Z,6.87
2019-02-22T21:17:41.523Z,6.53
2019-02-22T21:21:44.883Z,6.03
2019-02-22T21:25:48.460Z,6.67
2019-02-22T21:29:51.875Z,6.80
2019-02-22T21:33:55.267Z,6.78
2019-02-22T21:37:58.650Z,6.22
2019-02-22T21:42:02.054Z,6.33
2019-02-22T21:46:05.464Z,6.30
2019-02-22T21:50:16.034Z,5.47
2019-02-22T21:54:19.341Z,5.05
2019-02-22T21:58:22.711Z,5.20
2019-02-22T22:02:26.079Z,4.90
2019-02-22T22:06:29.463Z,5.58
2019-02-22T22:10:32.842Z,5.35
2019-02-22T22:14:36.211Z,5.73
2019-02-22T22:18:39.594Z,4.55
2019-02-22T22:22:42.908Z,4.75
2019-02-22T22:26:46.355Z,5.37
2019-02-22T22:30:49.722Z,5.28
2019-02-22T22:34:53.131Z,4.20
2019-02-22T22:38:56.852Z,4.35
2019-02-22T22:43:00.187Z,4.37
2019-02-22T22:47:03.574Z,4.12
2019-02-22T22:51:06.935Z,4.42
2019-02-22T22:55:10.972Z,4.30
2019-02-22T22:59:14.342Z,4.65
2019-02-22T23:03:17.802Z,4.15
2019-02-22T23:07:21.206Z,4.08
2019-02-22T23:11:24.595Z,4.00
2019-02-22T23:15:27.993Z,3.77
2019-02-22T23:19:31.354Z,4.42
2019-02-22T23:23:34.933Z,4.50
2019-02-22T23:27:38.327Z,4.00
2019-02-22T23:31:41.739Z,4.12
2019-02-22T23:35:45.130Z,4.37
2019-02-22T23:39:48.475Z,4.28
2019-02-22T23:43:51.866Z,3.83
2019-02-22T23:47:55.275Z,4.45
2019-02-22T23:51:58.679Z,4.42
2019-02-22T23:56:02.067Z,4.00
